createdAt,value
2018-11-06T04:06:42.629Z,0.00
2018-11-06T04:07:42.567Z,0.00
2018-11-06T04:08:42.520Z,0.00
2018-11-06T04:09:42.481Z,0.00
2018-11-06T04:10:42.439Z,0.00
2018-11-06T04:11:42.391Z,0.00
2018-11-06T04:12:42.354Z,0.00
2018-11-06T04:13:50.982Z,0.00
2018-11-06T04:15:46.737Z,0.00
2018-11-06T04:16:46.654Z,0.00
2018-11-06T04:17:46.618Z,0.00
2018-11-06T04:18:46.576Z,0.00
2018-11-06T04:19:46.535Z,0.00
2018-11-06T04:20:46.502Z,0.00
2018-11-06T04:21:46.464Z,0.00
2018-11-06T04:22:46.422Z,0.00
2018-11-06T04:23:46.388Z,0.00
2018-11-06T04:24:46.340Z,0.00
2018-11-06T04:25:46.304Z,0.00
2018-11-06T04:26:46.264Z,0.00
2018-11-06T04:27:46.223Z,0.00
2018-11-06T04:28:46.189Z,0.00
2018-11-06T04:29:46.151Z,0.00
2018-11-06T04:30:46.119Z,0.00
2018-11-06T04:31:46.079Z,0.00
2018-11-06T04:32:46.038Z,0.00
2018-11-06T04:33:45.999Z,0.00
2018-11-06T04:34:45.959Z,0.00
2018-11-06T04:35:45.923Z,0.00
2018-11-06T04:36:45.881Z,0.00
2018-11-06T04:37:45.843Z,0.00
2018-11-06T04:38:45.805Z,0.00
2018-11-06T04:39:45.771Z,0.00
2018-11-06T04:40:45.732Z,0.00
2018-11-06T04:41:45.693Z,0.00
2018-11-06T04:42:45.654Z,0.00
2018-11-06T04:43:45.620Z,0.00
2018-11-06T04:44:45.574Z,0.00
2018-11-06T04:45:45.538Z,0.00
2018-11-06T04:46:45.532Z,0.00
2018-11-06T04:47:45.471Z,0.00
2018-11-06T04:48:45.424Z,0.00
2018-11-06T04:49:45.389Z,0.00
2018-11-06T04:50:45.347Z,0.00
2018-11-06T04:51:45.307Z,0.00
2018-11-06T04:52:45.276Z,0.00
2018-11-06T04:53:45.236Z,0.00
2018-11-06T04:54:45.202Z,0.00
2018-11-06T04:55:45.168Z,0.00
2018-11-06T04:56:45.123Z,0.00
2018-11-06T04:57:45.080Z,0.00
2018-11-06T04:58:45.043Z,0.00
2018-11-06T04:59:45.007Z,0.00
2018-11-06T05:00:44.971Z,0.00
2018-11-06T05:01:44.935Z,0.00
2018-11-06T05:02:44.895Z,0.00
2018-11-06T05:03:44.866Z,0.00
2018-11-06T05:04:44.821Z,0.00
2018-11-06T05:05:44.786Z,0.00
2018-11-06T05:06:44.800Z,0.00
2018-11-06T05:07:44.708Z,0.00
2018-11-06T05:08:44.669Z,0.00
2018-11-06T05:09:44.630Z,0.00
2018-11-06T05:10:44.591Z,0.00
2018-11-06T05:11:44.556Z,0.00
2018-11-06T05:12:44.524Z,0.00
2018-11-06T05:13:44.499Z,0.00
2018-11-06T05:14:44.446Z,0.00
2018-11-06T05:15:44.407Z,0.00
2018-11-06T05:16:44.375Z,0.00
2018-11-06T05:17:44.337Z,0.00
2018-11-06T05:18:44.304Z,0.00
2018-11-06T05:19:44.282Z,0.00
2018-11-06T05:20:44.227Z,0.00
2018-11-06T05:21:44.181Z,0.00
2018-11-06T05:22:44.148Z,0.00
2018-11-06T05:23:44.110Z,0.00
2018-11-06T05:24:44.093Z,0.00
2018-11-06T05:25:44.040Z,0.00
2018-11-06T05:26:44.017Z,0.00
2018-11-06T05:27:43.963Z,0.00
2018-11-06T05:28:43.945Z,0.00
2018-11-06T05:29:43.881Z,0.00
2018-11-06T05:30:43.869Z,0.00
2018-11-06T05:31:43.807Z,0.00
2018-11-06T05:32:43.796Z,0.00
2018-11-06T05:33:43.741Z,0.00
2018-11-06T05:34:43.729Z,0.00
2018-11-06T05:35:43.662Z,0.00
2018-11-06T05:36:43.626Z,0.00
2018-11-06T05:37:43.587Z,0.00
2018-11-06T05:38:43.555Z,0.00
2018-11-06T05:39:43.650Z,0.00
2018-11-06T05:40:43.474Z,0.00
2018-11-06T05:41:43.440Z,0.00
2018-11-06T05:42:43.396Z,0.00
2018-11-06T05:43:43.357Z,0.00
2018-11-06T05:44:43.322Z,0.00
2018-11-06T05:45:43.345Z,0.00
2018-11-06T05:46:43.251Z,0.00
2018-11-06T05:47:43.211Z,0.00
2018-11-06T05:48:43.176Z,0.00
2018-11-06T05:49:43.128Z,0.00
2018-11-06T05:50:43.102Z,0.00
2018-11-06T05:51:43.063Z,0.00
2018-11-06T05:52:43.022Z,0.00
2018-11-06T05:53:42.980Z,0.00
2018-11-06T05:54:42.941Z,0.00
2018-11-06T05:55:42.910Z,0.00
2018-11-06T05:56:42.878Z,0.00
2018-11-06T05:57:42.841Z,0.00
2018-11-06T05:58:42.797Z,0.00
2018-11-06T05:59:42.760Z,0.00
2018-11-06T06:00:42.846Z,0.00
2018-11-06T06:01:42.682Z,0.00
2018-11-06T06:02:42.641Z,0.00
2018-11-06T06:03:42.615Z,0.00
2018-11-06T06:04:42.569Z,0.00
2018-11-06T06:05:42.534Z,0.00
2018-11-06T06:06:42.494Z,0.00
2018-11-06T06:07:42.454Z,0.00
2018-11-06T06:08:42.422Z,0.00
2018-11-06T06:09:42.382Z,0.00
2018-11-06T06:10:42.346Z,0.00
2018-11-06T06:11:42.309Z,0.00
2018-11-06T06:12:42.270Z,0.00
2018-11-06T06:13:42.228Z,0.00
2018-11-06T06:14:42.189Z,0.00
2018-11-06T06:15:42.155Z,0.00
2018-11-06T06:16:42.160Z,0.00
2018-11-06T06:17:42.080Z,0.00
2018-11-06T06:18:42.047Z,0.00
2018-11-06T06:19:42.011Z,0.00
2018-11-06T06:20:41.966Z,0.00
2018-11-06T06:21:41.932Z,0.00
2018-11-06T06:22:41.958Z,0.00
2018-11-06T06:23:41.855Z,0.00
2018-11-06T06:24:41.815Z,0.00
2018-11-06T06:25:41.806Z,0.00
2018-11-06T06:26:41.740Z,0.00
2018-11-06T06:27:41.708Z,0.00
2018-11-06T06:28:41.683Z,0.00
2018-11-06T06:29:41.649Z,0.00
2018-11-06T06:30:41.597Z,0.00
2018-11-06T06:31:41.556Z,0.00
2018-11-06T06:32:41.566Z,0.00
2018-11-06T06:33:41.470Z,0.00
2018-11-06T06:34:41.544Z,0.00
2018-11-06T06:35:41.447Z,0.00
2018-11-06T06:36:41.405Z,0.00
2018-11-06T06:37:41.421Z,0.00
2018-11-06T06:38:41.352Z,5.63
2018-11-06T06:39:41.252Z,5.63
2018-11-06T06:40:41.213Z,5.63
2018-11-06T06:41:41.201Z,5.63
2018-11-06T06:42:41.149Z,5.63
2018-11-06T06:43:41.120Z,5.63
2018-11-06T06:44:41.334Z,5.63
2018-11-06T06:45:41.017Z,5.63
2018-11-06T06:46:40.981Z,5.63
2018-11-06T06:47:40.949Z,11.25
2018-11-06T06:48:40.984Z,11.25
2018-11-06T06:49:40.889Z,11.25
2018-11-06T06:50:40.913Z,11.25
2018-11-06T06:51:40.848Z,11.25
2018-11-06T06:52:40.784Z,16.88
2018-11-06T06:53:40.836Z,16.88
2018-11-06T06:54:40.777Z,16.88
2018-11-06T06:55:40.680Z,16.88
2018-11-06T06:56:40.606Z,16.88
2018-11-06T06:57:40.597Z,16.88
2018-11-06T06:58:40.525Z,22.50
2018-11-06T06:59:40.532Z,22.50
2018-11-06T07:00:40.473Z,22.50
2018-11-06T07:01:40.430Z,22.50
2018-11-06T07:02:40.511Z,22.50
2018-11-06T07:03:40.350Z,22.50
2018-11-06T07:04:40.305Z,28.13
2018-11-06T07:05:40.263Z,28.13
2018-11-06T07:06:40.228Z,28.13
2018-11-06T07:07:40.224Z,28.13
2018-11-06T07:08:40.159Z,28.13
2018-11-06T07:09:40.150Z,28.13
2018-11-06T07:10:40.093Z,28.13
2018-11-06T07:11:40.042Z,33.75
2018-11-06T07:12:40.047Z,33.75
2018-11-06T07:13:39.972Z,33.75
2018-11-06T07:14:39.934Z,33.75
2018-11-06T07:15:39.897Z,33.75
2018-11-06T07:16:39.888Z,39.38
2018-11-06T07:17:39.835Z,39.38
2018-11-06T07:18:39.807Z,39.38
2018-11-06T07:19:39.746Z,39.38
2018-11-06T07:20:39.706Z,39.38
2018-11-06T07:21:39.670Z,39.38
2018-11-06T07:22:39.636Z,39.38
2018-11-06T07:23:39.599Z,45.00
2018-11-06T07:24:39.555Z,45.00
2018-11-06T07:25:39.537Z,45.00
2018-11-06T07:26:39.566Z,45.00
2018-11-06T07:27:39.454Z,45.00
2018-11-06T07:28:39.484Z,45.00
2018-11-06T07:29:39.368Z,50.63
2018-11-06T07:30:39.337Z,50.63
2018-11-06T07:31:39.296Z,50.63
2018-11-06T07:32:39.270Z,50.63
2018-11-06T07:33:39.239Z,50.63
2018-11-06T07:34:39.260Z,50.63
2018-11-06T07:35:39.380Z,56.25
2018-11-06T07:36:39.112Z,56.25
2018-11-06T07:37:39.069Z,56.25
2018-11-06T07:38:39.035Z,56.25
2018-11-06T07:39:39.006Z,56.25
2018-11-06T07:40:39.001Z,61.88
2018-11-06T07:41:38.971Z,61.88
2018-11-06T07:42:38.886Z,61.88
2018-11-06T07:43:38.851Z,61.88
2018-11-06T07:44:38.820Z,67.50
2018-11-06T07:45:38.777Z,67.50
2018-11-06T07:46:38.749Z,67.50
2018-11-06T07:47:38.708Z,67.50
2018-11-06T07:48:38.670Z,67.50
2018-11-06T07:49:38.648Z,73.13
2018-11-06T07:50:38.593Z,73.13
2018-11-06T07:51:38.568Z,73.13
2018-11-06T07:52:38.529Z,73.13
2018-11-06T07:53:38.485Z,73.13
2018-11-06T07:54:38.476Z,73.13
2018-11-06T07:55:38.492Z,78.75
2018-11-06T07:56:38.372Z,78.75
2018-11-06T07:57:38.350Z,78.75
2018-11-06T07:58:38.298Z,78.75
2018-11-06T07:59:38.265Z,78.75
2018-11-06T08:00:38.252Z,78.75
2018-11-06T08:01:38.211Z,78.75
2018-11-06T08:02:38.152Z,84.38
2018-11-06T08:03:38.119Z,84.38
2018-11-06T08:04:38.075Z,84.38
2018-11-06T08:05:38.059Z,84.38
2018-11-06T08:06:38.008Z,84.38
2018-11-06T08:07:37.969Z,84.38
2018-11-06T08:08:37.931Z,84.38
2018-11-06T08:09:38.004Z,84.38
2018-11-06T08:10:37.863Z,84.38
2018-11-06T08:11:37.846Z,90.00
2018-11-06T08:12:37.783Z,90.00
2018-11-06T08:13:37.763Z,84.38
2018-11-06T08:14:37.781Z,84.38
2018-11-06T08:15:37.698Z,84.38
2018-11-06T08:16:37.650Z,84.38
2018-11-06T08:17:37.612Z,84.38
2018-11-06T08:18:37.568Z,84.38
2018-11-06T08:19:37.526Z,90.00
2018-11-06T08:20:37.508Z,90.00
2018-11-06T08:21:37.490Z,90.00
2018-11-06T08:22:37.418Z,90.00
2018-11-06T08:23:37.483Z,90.00
2018-11-06T08:24:37.381Z,90.00
2018-11-06T08:25:37.337Z,90.00
2018-11-06T08:26:37.280Z,90.00
2018-11-06T08:27:37.308Z,90.00
2018-11-06T08:28:37.240Z,95.63
2018-11-06T08:29:37.174Z,95.63
2018-11-06T08:30:37.442Z,95.63
2018-11-06T08:31:37.398Z,101.25
2018-11-06T08:32:37.406Z,101.25
2018-11-06T08:33:37.011Z,101.25
2018-11-06T08:34:36.975Z,101.25
2018-11-06T08:35:36.939Z,101.25
2018-11-06T08:36:36.958Z,101.25
2018-11-06T08:37:36.875Z,101.25
2018-11-06T08:38:36.835Z,101.25
2018-11-06T08:39:36.804Z,101.25
2018-11-06T08:40:36.760Z,101.25
2018-11-06T08:41:36.721Z,101.25
2018-11-06T08:42:36.798Z,101.25
2018-11-06T08:43:36.654Z,101.25
2018-11-06T08:44:36.629Z,106.88
2018-11-06T08:45:36.631Z,106.88
2018-11-06T08:46:36.570Z,106.88
2018-11-06T08:47:36.513Z,112.50
2018-11-06T08:48:36.504Z,106.88
2018-11-06T08:49:36.451Z,106.88
2018-11-06T08:50:36.397Z,106.88
2018-11-06T08:51:36.359Z,112.50
2018-11-06T08:52:36.323Z,118.13
2018-11-06T08:53:36.294Z,118.13
2018-11-06T08:54:36.376Z,118.13
2018-11-06T08:55:36.211Z,118.13
2018-11-06T08:56:36.244Z,118.13
2018-11-06T08:57:36.148Z,123.75
2018-11-06T08:58:36.112Z,118.13
2018-11-06T08:59:36.105Z,118.13
2018-11-06T09:00:36.033Z,118.13
2018-11-06T09:01:35.995Z,123.75
2018-11-06T09:02:36.072Z,129.38
2018-11-06T09:03:35.938Z,129.38
2018-11-06T09:04:35.887Z,129.38
2018-11-06T09:05:35.850Z,129.38
2018-11-06T09:06:35.843Z,129.38
2018-11-06T09:07:35.781Z,129.38
2018-11-06T09:08:35.753Z,129.38
2018-11-06T09:09:35.709Z,140.63
2018-11-06T09:10:35.677Z,135.00
2018-11-06T09:11:35.638Z,135.00
2018-11-06T09:12:35.597Z,135.00
2018-11-06T09:13:35.593Z,135.00
2018-11-06T09:14:35.550Z,129.38
2018-11-06T09:15:35.494Z,140.63
2018-11-06T09:16:35.458Z,146.25
2018-11-06T09:17:35.444Z,151.88
2018-11-06T09:18:35.408Z,146.25
2018-11-06T09:19:35.349Z,151.88
2018-11-06T09:20:35.325Z,151.88
2018-11-06T09:21:35.282Z,151.88
2018-11-06T09:22:35.243Z,151.88
2018-11-06T09:23:35.206Z,151.88
2018-11-06T09:24:35.175Z,151.88
2018-11-06T09:25:35.131Z,146.25
2018-11-06T09:26:35.117Z,151.88
2018-11-06T09:27:35.063Z,151.88
2018-11-06T09:28:35.065Z,151.88
2018-11-06T09:29:34.994Z,151.88
2018-11-06T09:30:34.954Z,157.50
2018-11-06T09:31:35.007Z,168.75
2018-11-06T09:32:34.926Z,168.75
2018-11-06T09:33:34.867Z,163.13
2018-11-06T09:34:34.859Z,168.75
2018-11-06T09:35:34.835Z,174.38
2018-11-06T09:36:34.747Z,168.75
2018-11-06T09:37:34.745Z,168.75
2018-11-06T09:38:34.777Z,157.50
2018-11-06T09:39:34.637Z,168.75
2018-11-06T09:40:34.610Z,163.13
2018-11-06T09:41:34.582Z,163.13
2018-11-06T09:42:34.541Z,157.50
2018-11-06T09:43:34.552Z,151.88
2018-11-06T09:44:34.462Z,163.13
2018-11-06T09:45:34.478Z,157.50
2018-11-06T09:46:34.416Z,151.88
2018-11-06T09:47:34.342Z,163.13
2018-11-06T09:48:34.332Z,163.13
2018-11-06T09:49:34.280Z,163.13
2018-11-06T09:50:34.275Z,163.13
2018-11-06T09:51:34.205Z,157.50
2018-11-06T09:52:34.271Z,151.88
2018-11-06T09:53:34.148Z,157.50
2018-11-06T09:54:34.130Z,163.13
2018-11-06T09:55:34.092Z,151.88
2018-11-06T09:56:34.023Z,157.50
2018-11-06T09:57:33.992Z,163.13
2018-11-06T09:58:33.958Z,168.75
2018-11-06T09:59:33.919Z,168.75
2018-11-06T10:00:33.908Z,163.13
2018-11-06T10:01:33.870Z,157.50
2018-11-06T10:02:33.867Z,157.50
2018-11-06T10:03:33.779Z,146.25
2018-11-06T10:04:33.749Z,140.63
2018-11-06T10:20:03.043Z,140.63
2018-11-06T10:21:03.012Z,135.00
2018-11-06T10:22:02.933Z,140.63
2018-11-06T10:23:02.894Z,140.63
2018-11-06T10:24:02.855Z,151.88
2018-11-06T10:25:02.829Z,157.50
2018-11-06T10:26:02.825Z,135.00
2018-11-06T10:27:02.743Z,135.00
2018-11-06T10:28:02.727Z,135.00
2018-11-06T10:29:02.663Z,146.25
2018-11-06T10:30:02.654Z,168.75
2018-11-06T10:31:02.593Z,191.25
2018-11-06T10:32:02.574Z,185.63
2018-11-06T10:33:02.601Z,185.63
2018-11-06T10:34:02.594Z,180.00
2018-11-06T10:35:02.460Z,174.38
2018-11-06T10:36:02.409Z,168.75
2018-11-06T10:37:02.414Z,168.75
2018-11-06T10:38:02.375Z,174.38
2018-11-06T10:39:02.447Z,168.75
2018-11-06T10:40:02.426Z,174.38
2018-11-06T10:41:02.292Z,174.38
2018-11-06T10:42:02.191Z,174.38
2018-11-06T10:43:02.153Z,163.13
2018-11-06T10:44:02.121Z,163.13
2018-11-06T10:45:02.088Z,151.88
2018-11-06T10:46:02.047Z,163.13
2018-11-06T10:47:02.012Z,163.13
2018-11-06T10:48:02.057Z,174.38
2018-11-06T10:49:02.040Z,157.50
2018-11-06T10:50:02.002Z,163.13
2018-11-06T10:51:01.931Z,174.38
2018-11-06T10:52:01.916Z,180.00
2018-11-06T10:53:01.840Z,185.63
2018-11-06T10:54:01.767Z,180.00
2018-11-06T10:55:01.761Z,180.00
2018-11-06T10:56:01.734Z,191.25
2018-11-06T10:57:01.722Z,191.25
2018-11-06T10:58:01.803Z,185.63
2018-11-06T10:59:01.597Z,191.25
2018-11-06T11:00:01.548Z,196.88
2018-11-06T11:01:01.545Z,196.88
2018-11-06T11:02:01.601Z,202.50
2018-11-06T11:03:01.450Z,191.25
2018-11-06T11:04:01.458Z,191.25
2018-11-06T11:05:01.369Z,202.50
2018-11-06T11:06:01.338Z,213.75
2018-11-06T11:07:01.343Z,213.75
2018-11-06T11:08:01.255Z,208.13
2018-11-06T11:09:01.223Z,202.50
2018-11-06T11:10:01.252Z,219.38
2018-11-06T11:11:01.305Z,213.75
2018-11-06T11:12:01.146Z,196.88
2018-11-06T11:13:01.086Z,213.75
2018-11-06T11:14:01.074Z,213.75
2018-11-06T11:15:01.025Z,191.25
2018-11-06T11:16:01.029Z,191.25
2018-11-06T11:17:00.981Z,208.13
2018-11-06T11:18:00.897Z,208.13
2018-11-06T11:19:00.913Z,202.50
2018-11-06T11:20:00.857Z,213.75
2018-11-06T11:21:00.868Z,196.88
2018-11-06T11:22:00.853Z,202.50
2018-11-06T11:23:00.801Z,208.13
2018-11-06T11:24:00.698Z,213.75
2018-11-06T11:25:00.734Z,208.13
2018-11-06T11:26:00.718Z,202.50
2018-11-06T11:27:00.582Z,191.25
2018-11-06T11:28:00.668Z,180.00
2018-11-06T11:29:00.605Z,191.25
2018-11-06T11:30:00.605Z,185.63
2018-11-06T11:31:00.477Z,180.00
2018-11-06T11:32:00.586Z,168.75
2018-11-06T11:33:00.369Z,174.38
2018-11-06T11:34:00.385Z,174.38
2018-11-06T11:35:00.293Z,174.38
2018-11-06T11:36:00.260Z,191.25
2018-11-06T11:37:00.234Z,180.00
2018-11-06T11:38:00.270Z,163.13
2018-11-06T11:39:00.175Z,174.38
2018-11-06T11:40:00.133Z,180.00
2018-11-06T11:41:00.093Z,191.25
2018-11-06T11:42:00.170Z,191.25
2018-11-06T11:43:00.114Z,191.25
2018-11-06T11:43:59.977Z,180.00
2018-11-06T11:44:59.944Z,196.88
2018-11-06T11:45:59.943Z,191.25
2018-11-06T11:46:59.872Z,174.38
2018-11-06T11:47:59.844Z,174.38
2018-11-06T11:48:59.810Z,185.63
2018-11-06T11:49:59.765Z,185.63
2018-11-06T11:50:59.739Z,180.00
2018-11-06T11:51:59.720Z,180.00
2018-11-06T11:52:59.689Z,185.63
2018-11-06T11:53:59.703Z,174.38
2018-11-06T11:54:59.613Z,180.00
2018-11-06T11:55:59.612Z,180.00
2018-11-06T11:56:59.524Z,185.63
2018-11-06T11:57:59.496Z,180.00
2018-11-06T11:58:59.466Z,185.63
2018-11-06T11:59:59.509Z,180.00
2018-11-06T12:00:59.373Z,168.75
2018-11-06T12:01:59.397Z,174.38
2018-11-06T12:02:59.303Z,185.63
2018-11-06T12:03:59.312Z,185.63
2018-11-06T12:04:59.233Z,174.38
2018-11-06T12:05:59.213Z,180.00
2018-11-06T12:06:59.169Z,174.38
2018-11-06T12:07:59.155Z,174.38
2018-11-06T12:08:59.127Z,168.75
2018-11-06T12:09:59.075Z,168.75
2018-11-06T12:10:59.030Z,168.75
2018-11-06T12:11:59.024Z,168.75
2018-11-06T12:12:58.956Z,163.13
2018-11-06T12:13:58.926Z,157.50
2018-11-06T12:14:58.876Z,157.50
2018-11-06T12:15:58.877Z,157.50
2018-11-06T12:16:58.809Z,163.13
2018-11-06T12:17:58.825Z,168.75
2018-11-06T12:18:58.757Z,174.38
2018-11-06T12:19:58.747Z,174.38
2018-11-06T12:20:58.676Z,180.00
2018-11-06T12:21:58.650Z,168.75
2018-11-06T12:22:58.602Z,163.13
2018-11-06T12:23:58.626Z,163.13
2018-11-06T12:24:58.666Z,185.63
2018-11-06T12:25:58.494Z,191.25
2018-11-06T12:26:58.525Z,185.63
2018-11-06T12:27:58.452Z,180.00
2018-11-06T12:28:58.467Z,163.13
2018-11-06T12:29:58.382Z,135.00
2018-11-06T12:30:58.332Z,135.00
2018-11-06T12:31:58.303Z,135.00
2018-11-06T12:32:58.279Z,135.00
2018-11-06T12:33:58.230Z,135.00
2018-11-06T12:34:58.319Z,135.00
2018-11-06T12:35:58.148Z,157.50
2018-11-06T12:36:58.273Z,168.75
2018-11-06T12:37:58.142Z,163.13
2018-11-06T12:38:58.050Z,168.75
2018-11-06T12:39:58.052Z,168.75
2018-11-06T12:40:57.972Z,168.75
2018-11-06T12:41:57.981Z,163.13
2018-11-06T12:42:58.068Z,157.50
2018-11-06T12:43:57.889Z,151.88
2018-11-06T12:44:57.844Z,151.88
2018-11-06T12:45:57.802Z,151.88
2018-11-06T12:46:57.756Z,146.25
2018-11-06T12:47:57.807Z,157.50
2018-11-06T12:48:57.808Z,157.50
2018-11-06T12:49:57.656Z,157.50
2018-11-06T12:50:57.646Z,157.50
2018-11-06T12:51:57.586Z,151.88
2018-11-06T12:52:57.548Z,146.25
2018-11-06T12:53:57.527Z,140.63
2018-11-06T12:54:57.484Z,135.00
2018-11-06T12:55:57.514Z,140.63
2018-11-06T12:56:57.438Z,140.63
2018-11-06T12:57:57.393Z,140.63
2018-11-06T12:58:57.511Z,140.63
2018-11-06T12:59:57.344Z,146.25
2018-11-06T13:00:57.283Z,146.25
2018-11-06T13:01:57.301Z,151.88
2018-11-06T13:02:57.307Z,151.88
2018-11-06T13:03:57.213Z,151.88
2018-11-06T13:04:57.208Z,157.50
2018-11-06T13:05:57.118Z,157.50
2018-11-06T13:06:57.157Z,157.50
2018-11-06T13:07:57.047Z,151.88
2018-11-06T13:08:57.045Z,151.88
2018-11-06T13:09:56.982Z,151.88
2018-11-06T13:10:56.925Z,151.88
2018-11-06T13:11:56.943Z,146.25
2018-11-06T13:12:57.065Z,146.25
2018-11-06T13:13:56.835Z,146.25
2018-11-06T13:14:57.238Z,146.25
2018-11-06T13:15:56.843Z,140.63
2018-11-06T13:16:56.768Z,135.00
2018-11-06T13:17:56.702Z,129.38
2018-11-06T13:18:56.655Z,123.75
2018-11-06T13:19:56.640Z,112.50
2018-11-06T13:20:56.611Z,112.50
2018-11-06T13:21:56.582Z,118.13
2018-11-06T13:22:56.521Z,123.75
2018-11-06T13:23:56.501Z,118.13
2018-11-06T13:24:56.480Z,112.50
2018-11-06T13:25:56.442Z,112.50
2018-11-06T13:26:56.371Z,112.50
2018-11-06T13:27:56.329Z,112.50
2018-11-06T13:28:56.300Z,112.50
2018-11-06T13:29:56.252Z,118.13
2018-11-06T13:30:56.221Z,123.75
2018-11-06T13:31:56.189Z,118.13
2018-11-06T13:32:56.303Z,118.13
2018-11-06T13:33:56.117Z,118.13
2018-11-06T13:34:56.081Z,118.13
2018-11-06T13:35:56.055Z,118.13
2018-11-06T13:36:56.016Z,112.50
2018-11-06T13:37:55.991Z,112.50
2018-11-06T13:38:55.940Z,112.50
2018-11-06T13:39:55.910Z,112.50
2018-11-06T13:40:55.874Z,112.50
2018-11-06T13:41:55.874Z,112.50
2018-11-06T13:42:56.074Z,112.50
2018-11-06T13:43:55.948Z,118.13
2018-11-06T13:44:55.963Z,118.13
2018-11-06T13:45:55.702Z,112.50
2018-11-06T13:46:55.663Z,112.50
2018-11-06T13:47:55.628Z,118.13
2018-11-06T13:48:55.597Z,112.50
2018-11-06T13:49:55.554Z,118.13
2018-11-06T13:50:55.521Z,112.50
2018-11-06T13:51:55.491Z,112.50
2018-11-06T13:52:55.449Z,112.50
2018-11-06T13:53:55.419Z,112.50
2018-11-06T13:54:55.385Z,112.50
2018-11-06T13:55:55.347Z,112.50
2018-11-06T13:56:55.312Z,118.13
2018-11-06T13:57:55.279Z,112.50
2018-11-06T13:58:55.244Z,112.50
2018-11-06T13:59:55.212Z,112.50
2018-11-06T14:00:55.180Z,112.50
2018-11-06T14:01:55.142Z,112.50
2018-11-06T14:02:55.103Z,112.50
2018-11-06T14:03:55.067Z,106.88
2018-11-06T14:04:55.036Z,112.50
2018-11-06T14:05:55.004Z,112.50
2018-11-06T14:06:54.964Z,106.88
2018-11-06T14:07:54.933Z,106.88
2018-11-06T14:08:54.900Z,106.88
2018-11-06T14:09:54.855Z,106.88
2018-11-06T14:10:54.823Z,106.88
2018-11-06T14:11:54.819Z,101.25
2018-11-06T14:12:54.756Z,95.63
2018-11-06T14:13:54.716Z,95.63
2018-11-06T14:14:54.683Z,95.63
2018-11-06T14:15:54.654Z,95.63
2018-11-06T14:16:54.613Z,101.25
2018-11-06T14:17:54.603Z,95.63
2018-11-06T14:18:54.547Z,90.00
2018-11-06T14:19:54.511Z,90.00
2018-11-06T14:20:54.511Z,84.38
2018-11-06T14:21:54.437Z,84.38
2018-11-06T14:22:54.409Z,84.38
2018-11-06T14:23:54.368Z,84.38
2018-11-06T14:24:54.341Z,84.38
2018-11-06T14:25:54.306Z,78.75
2018-11-06T14:26:54.322Z,78.75
2018-11-06T14:27:54.231Z,78.75
2018-11-06T14:28:54.192Z,73.13
2018-11-06T14:29:54.164Z,73.13
2018-11-06T14:30:54.134Z,73.13
2018-11-06T14:31:54.120Z,73.13
2018-11-06T14:32:54.061Z,73.13
2018-11-06T14:33:54.020Z,67.50
2018-11-06T14:34:53.987Z,67.50
2018-11-06T14:35:54.173Z,67.50
2018-11-06T14:36:53.913Z,67.50
2018-11-06T14:37:53.888Z,67.50
2018-11-06T14:38:53.847Z,67.50
2018-11-06T14:39:53.817Z,61.88
2018-11-06T14:40:53.778Z,61.88
2018-11-06T14:41:53.739Z,61.88
2018-11-06T14:42:53.746Z,61.88
2018-11-06T14:43:53.674Z,61.88
2018-11-06T14:44:53.638Z,61.88
2018-11-06T14:45:53.604Z,61.88
2018-11-06T14:46:53.569Z,56.25
2018-11-06T14:47:53.608Z,56.25
2018-11-06T14:48:53.588Z,56.25
2018-11-06T14:49:53.463Z,56.25
2018-11-06T14:50:53.428Z,56.25
2018-11-06T14:51:53.393Z,56.25
2018-11-06T14:52:53.357Z,50.63
2018-11-06T14:53:53.317Z,50.63
2018-11-06T14:54:53.286Z,50.63
2018-11-06T14:55:53.255Z,50.63
2018-11-06T14:56:53.216Z,50.63
2018-11-06T14:57:53.187Z,50.63
2018-11-06T14:58:53.144Z,45.00
2018-11-06T14:59:53.107Z,45.00
2018-11-06T15:00:53.068Z,45.00
2018-11-06T15:01:53.053Z,45.00
2018-11-06T15:02:53.004Z,45.00
2018-11-06T15:03:52.968Z,39.38
2018-11-06T15:04:52.936Z,39.38
2018-11-06T15:05:52.895Z,39.38
2018-11-06T15:06:52.861Z,39.38
2018-11-06T15:07:52.833Z,39.38
2018-11-06T15:08:52.789Z,33.75
2018-11-06T15:09:52.760Z,33.75
2018-11-06T15:10:52.722Z,33.75
2018-11-06T15:11:52.686Z,33.75
2018-11-06T15:12:52.653Z,33.75
2018-11-06T15:13:52.615Z,33.75
2018-11-06T15:14:52.581Z,33.75
2018-11-06T15:15:52.548Z,28.13
2018-11-06T15:16:52.518Z,28.13
2018-11-06T15:17:52.473Z,28.13
2018-11-06T15:18:52.440Z,28.13
2018-11-06T15:19:52.406Z,28.13
2018-11-06T15:20:52.445Z,28.13
2018-11-06T15:21:52.341Z,28.13
2018-11-06T15:22:52.301Z,28.13
2018-11-06T15:23:52.298Z,22.50
2018-11-06T15:24:52.229Z,22.50
2018-11-06T15:25:52.198Z,22.50
2018-11-06T15:26:52.158Z,22.50
2018-11-06T15:27:52.122Z,22.50
2018-11-06T15:28:52.109Z,22.50
2018-11-06T15:29:52.084Z,16.88
2018-11-06T15:30:52.020Z,16.88
2018-11-06T15:31:51.981Z,16.88
2018-11-06T15:32:51.949Z,16.88
2018-11-06T15:33:51.925Z,16.88
2018-11-06T15:34:51.878Z,16.88
2018-11-06T15:35:51.849Z,16.88
2018-11-06T15:36:51.809Z,11.25
2018-11-06T15:37:51.763Z,11.25
2018-11-06T15:38:51.731Z,11.25
2018-11-06T15:39:51.706Z,11.25
2018-11-06T15:40:51.674Z,11.25
2018-11-06T15:41:51.676Z,11.25
2018-11-06T15:42:51.595Z,11.25
2018-11-06T15:43:51.554Z,5.63
2018-11-06T15:44:51.525Z,5.63
2018-11-06T15:45:51.510Z,5.63
2018-11-06T15:46:51.444Z,5.63
2018-11-06T15:47:51.417Z,5.63
2018-11-06T15:48:51.480Z,5.63
2018-11-06T15:49:51.337Z,5.63
2018-11-06T15:50:51.301Z,5.63
2018-11-06T15:51:51.265Z,5.63
2018-11-06T16:03:59.088Z,0.00
2018-11-06T16:04:59.029Z,0.00
2018-11-06T16:05:58.971Z,0.00
2018-11-06T16:06:58.941Z,0.00
2018-11-06T16:07:58.898Z,0.00
2018-11-06T16:08:58.851Z,0.00
2018-11-06T16:10:06.473Z,0.00
2018-11-06T16:10:58.772Z,0.00
2018-11-06T16:11:58.734Z,0.00
2018-11-06T16:12:58.696Z,0.00
2018-11-06T16:13:58.656Z,0.00
2018-11-06T16:14:58.616Z,0.00
2018-11-06T16:15:58.586Z,0.00
2018-11-06T16:16:58.545Z,0.00
2018-11-06T16:17:58.505Z,0.00
2018-11-06T16:18:58.466Z,0.00
2018-11-06T16:19:58.428Z,0.00
2018-11-06T16:20:58.443Z,0.00
2018-11-06T16:21:58.359Z,0.00
2018-11-06T16:22:58.324Z,0.00
2018-11-06T16:23:58.298Z,0.00
2018-11-06T16:24:58.247Z,0.00
2018-11-06T16:25:58.211Z,0.00
2018-11-06T16:26:58.182Z,0.00
2018-11-06T16:27:58.133Z,0.00
2018-11-06T16:28:58.102Z,0.00
2018-11-06T16:29:58.067Z,0.00
2018-11-06T16:30:58.032Z,0.00
2018-11-06T16:31:57.994Z,0.00
2018-11-06T16:32:57.953Z,0.00
2018-11-06T16:33:57.918Z,0.00
2018-11-06T16:34:57.883Z,0.00
2018-11-06T16:35:57.847Z,0.00
2018-11-06T16:36:57.811Z,0.00
2018-11-06T16:37:57.770Z,0.00
2018-11-06T16:38:57.731Z,0.00
2018-11-06T16:39:57.696Z,0.00
2018-11-06T16:40:57.660Z,0.00
2018-11-06T16:41:57.626Z,0.00
2018-11-06T16:42:57.595Z,0.00
2018-11-06T16:43:57.554Z,0.00
2018-11-06T16:44:57.515Z,0.00
2018-11-06T16:45:57.479Z,0.00
2018-11-06T16:46:57.440Z,0.00
2018-11-06T16:47:57.409Z,0.00
2018-11-06T16:48:57.371Z,0.00
2018-11-06T16:49:57.332Z,0.00
2018-11-06T16:50:57.301Z,0.00
2018-11-06T16:51:57.259Z,0.00
2018-11-06T16:52:57.223Z,0.00
2018-11-06T16:53:57.190Z,0.00
2018-11-06T16:54:57.156Z,0.00
2018-11-06T16:55:57.119Z,0.00
2018-11-06T16:56:57.089Z,0.00
2018-11-06T16:57:57.042Z,0.00
2018-11-06T16:58:57.004Z,0.00
2018-11-06T16:59:56.996Z,0.00
2018-11-06T17:00:57.070Z,0.00
2018-11-06T17:01:56.902Z,0.00
2018-11-06T17:02:56.865Z,0.00
2018-11-06T17:03:56.822Z,0.00
2018-11-06T17:04:56.789Z,0.00
2018-11-06T17:05:56.755Z,0.00
2018-11-06T17:06:56.720Z,0.00
2018-11-06T17:07:56.684Z,0.00
2018-11-06T17:08:56.647Z,0.00
2018-11-06T17:09:56.606Z,0.00
2018-11-06T17:10:56.568Z,0.00
2018-11-06T17:11:56.533Z,0.00
2018-11-06T17:12:56.498Z,0.00
2018-11-06T17:13:56.465Z,0.00
2018-11-06T17:14:56.429Z,0.00
2018-11-06T17:15:56.391Z,0.00
2018-11-06T17:16:56.353Z,0.00
2018-11-06T17:17:56.319Z,0.00
2018-11-06T17:18:56.277Z,0.00
2018-11-06T17:19:56.247Z,0.00
2018-11-06T17:20:56.212Z,0.00
2018-11-06T17:21:56.172Z,0.00
2018-11-06T17:22:56.132Z,0.00